Time;durP1;ratioP1;P1;durP2;ratioP2;P2;SDS_P1;SDS_P2;PMS_P1;PMS_P2;Temp;Humidity;BMP_temperature;BMP_pressure;BME280_temperature;BME280_humidity;BME280_pressure;Samples;Min_cycle;Max_cycle;Signal;HPM_P1;HPM_P2
2022/06/23 00:01:58;;;;;;;7.97;4.05;;;22.50;73.60;;;;;;5032026;28;20157;-60
2022/06/23 00:04:35;;;;;;;10.68;4.20;;;22.40;73.30;;;;;;5046407;28;20026;-61
2022/06/23 00:07:04;;;;;;;9.68;4.70;;;22.50;73.60;;;;;;5027200;28;20033;-61
2022/06/23 00:09:35;;;;;;;8.35;4.80;;;22.50;73.60;;;;;;5028734;28;20033;-60
2022/06/23 00:12:13;;;;;;;6.47;4.43;;;22.40;74.00;;;;;;5038571;28;20030;-60
2022/06/23 00:14:39;;;;;;;8.82;4.60;;;22.30;73.70;;;;;;5029512;28;20025;-61
2022/06/23 00:17:26;;;;;;;5.82;4.15;;;22.40;73.70;;;;;;5034109;28;20063;-61
2022/06/23 00:19:53;;;;;;;6.70;3.65;;;22.40;74.40;;;;;;5034035;28;20514;-60
2022/06/23 00:22:23;;;;;;;8.70;3.90;;;22.40;73.60;;;;;;5040809;28;20037;-60
2022/06/23 00:24:52;;;;;;;5.60;3.67;;;22.40;73.80;;;;;;5030966;28;20029;-61
2022/06/23 00:27:21;;;;;;;11.30;4.18;;;22.30;73.60;;;;;;5029471;28;20054;-61
2022/06/23 00:29:48;;;;;;;6.88;3.70;;;22.30;73.90;;;;;;5030123;28;20164;-61
2022/06/23 00:32:15;;;;;;;8.18;3.95;;;22.30;73.80;;;;;;5026878;28;20120;-61
2022/06/23 00:34:44;;;;;;;7.82;4.03;;;22.40;73.90;;;;;;5034727;28;20664;-61
2022/06/23 00:37:09;;;;;;;7.50;4.20;;;22.30;73.90;;;;;;5042570;28;20056;-60
2022/06/23 00:39:36;;;;;;;7.30;4.03;;;22.30;73.80;;;;;;5037206;28;20034;-60
2022/06/23 00:42:27;;;;;;;9.10;3.83;;;22.30;73.80;;;;;;5049173;28;20026;-60
2022/06/23 00:45:34;;;;;;;11.75;4.40;;;22.30;74.10;;;;;;5027543;28;20046;-61
2022/06/23 00:48:16;;;;;;;10.20;3.38;;;22.30;73.80;;;;;;5034009;28;20047;-60
2022/06/23 00:50:56;;;;;;;8.00;3.65;;;22.30;73.00;;;;;;5045395;28;20037;-61
2022/06/23 00:53:43;;;;;;;8.80;3.35;;;22.30;73.50;;;;;;5032528;28;20116;-61
2022/06/23 00:56:32;;;;;;;6.95;3.92;;;22.30;72.90;;;;;;5033393;28;20037;-60
2022/06/23 00:59:01;;;;;;;8.15;3.10;;;22.20;73.20;;;;;;5036137;28;20048;-60
2022/06/23 01:02:13;;;;;;;7.10;3.47;;;22.20;72.80;;;;;;5041656;28;20022;-61
2022/06/23 01:04:47;;;;;;;8.45;3.45;;;22.10;73.60;;;;;;5015967;28;20077;-61
2022/06/23 01:07:37;;;;;;;6.75;3.33;;;22.10;73.30;;;;;;5024725;28;20404;-62
2022/06/23 01:10:24;;;;;;;6.13;3.38;;;22.10;73.00;;;;;;5017089;28;20036;-61
2022/06/23 01:13:37;;;;;;;5.57;3.05;;;22.10;73.40;;;;;;5012434;28;20109;-61
2022/06/23 01:16:39;;;;;;;4.97;3.03;;;22.00;73.50;;;;;;5010942;28;22272;-60
2022/06/23 01:19:25;;;;;;;6.97;2.95;;;22.00;73.30;;;;;;5012205;28;20164;-61
2022/06/23 01:21:55;;;;;;;8.93;3.25;;;21.90;73.10;;;;;;5011050;28;20131;-60
2022/06/23 01:24:59;;;;;;;6.63;3.00;;;21.90;72.70;;;;;;5015023;28;20030;-61
2022/06/23 01:27:49;;;;;;;6.15;3.15;;;21.80;73.10;;;;;;4991658;28;20068;-60
2022/06/23 01:30:18;;;;;;;4.82;2.53;;;21.80;73.00;;;;;;5012421;28;20060;-60
2022/06/23 01:33:01;;;;;;;8.18;3.03;;;21.80;72.60;;;;;;5011284;28;20046;-61
2022/06/23 01:35:51;;;;;;;7.55;2.60;;;21.70;72.90;;;;;;5011230;28;20042;-61
2022/06/23 01:38:35;;;;;;;4.93;2.70;;;21.60;73.20;;;;;;5016473;28;20030;-61
2022/06/23 01:41:12;;;;;;;8.43;2.70;;;21.60;73.50;;;;;;5033456;28;20060;-59
2022/06/23 01:43:48;;;;;;;8.23;3.13;;;21.60;73.30;;;;;;5032194;28;20065;-60
2022/06/23 01:46:35;;;;;;;5.88;2.70;;;21.60;73.40;;;;;;5037241;28;20089;-61
2022/06/23 01:49:17;;;;;;;3.72;2.40;;;21.60;73.60;;;;;;5030981;28;20948;-60
2022/06/23 01:52:18;;;;;;;5.65;2.33;;;21.60;73.30;;;;;;5034338;28;20063;-60
2022/06/23 01:54:46;;;;;;;3.90;2.15;;;21.50;73.40;;;;;;5035421;28;20037;-61
2022/06/23 01:57:38;;;;;;;4.93;1.75;;;21.50;72.90;;;;;;5028077;28;20033;-61
2022/06/23 02:00:15;;;;;;;6.10;1.67;;;21.50;73.10;;;;;;5030834;28;20026;-60
2022/06/23 02:02:50;;;;;;;4.97;1.65;;;21.50;73.00;;;;;;5031060;28;20087;-60
2022/06/23 02:05:45;;;;;;;4.50;1.88;;;21.50;73.10;;;;;;5032056;28;21857;-59
2022/06/23 02:08:31;;;;;;;7.38;1.98;;;21.40;73.20;;;;;;5030297;28;20084;-60
2022/06/23 02:11:38;;;;;;;6.22;1.83;;;21.40;73.10;;;;;;5030074;28;20045;-59
2022/06/23 02:14:13;;;;;;;2.78;1.65;;;21.40;73.40;;;;;;5030509;28;20029;-61
2022/06/23 02:16:50;;;;;;;4.97;1.83;;;21.40;73.00;;;;;;5032706;28;20056;-61
2022/06/23 02:19:21;;;;;;;5.10;1.73;;;21.40;72.80;;;;;;5031217;28;20025;-62
2022/06/23 02:22:04;;;;;;;4.03;2.30;;;21.30;72.60;;;;;;5031667;28;20051;-61
2022/06/23 02:24:59;;;;;;;5.45;2.13;;;21.30;73.00;;;;;;5040400;28;20061;-61
2022/06/23 02:27:47;;;;;;;6.78;1.95;;;21.30;73.20;;;;;;5032246;28;20053;-60
2022/06/23 02:30:22;;;;;;;3.83;1.98;;;21.30;72.80;;;;;;5039866;28;20120;-61
2022/06/23 02:32:57;;;;;;;5.63;2.30;;;21.20;72.80;;;;;;5040262;28;20089;-60
2022/06/23 02:35:33;;;;;;;6.05;1.90;;;21.20;72.60;;;;;;5032640;28;20033;-61
2022/06/23 02:38:20;;;;;;;6.00;1.92;;;21.10;72.80;;;;;;5039186;28;20060;-60
2022/06/23 02:40:49;;;;;;;5.65;2.30;;;21.00;72.80;;;;;;5031304;28;20026;-61
2022/06/23 02:43:19;;;;;;;5.80;1.75;;;21.00;73.10;;;;;;5041368;28;20043;-61
2022/06/23 02:46:17;;;;;;;5.25;2.00;;;20.90;73.60;;;;;;5049105;28;20059;-60
2022/06/23 02:48:58;;;;;;;5.55;2.47;;;20.90;74.20;;;;;;5031916;28;20087;-62
2022/06/23 02:51:41;;;;;;;7.82;2.67;;;20.90;74.00;;;;;;5043488;28;20057;-62
2022/06/23 02:54:50;;;;;;;7.18;2.50;;;20.90;74.50;;;;;;5036865;28;20026;-60
2022/06/23 02:57:15;;;;;;;5.45;2.53;;;20.90;74.70;;;;;;5034181;28;20044;-62
2022/06/23 03:00:22;;;;;;;8.73;2.38;;;20.90;74.10;;;;;;5044964;28;20072;-61
2022/06/23 03:03:02;;;;;;;3.95;2.13;;;20.90;74.80;;;;;;5031696;28;20656;-62
2022/06/23 03:05:31;;;;;;;7.13;1.95;;;20.90;74.30;;;;;;5030339;28;21158;-61
2022/06/23 03:08:09;;;;;;;3.33;1.70;;;20.90;74.20;;;;;;5028638;28;20041;-62
2022/06/23 03:11:06;;;;;;;5.65;2.40;;;20.90;74.60;;;;;;5029155;28;20030;-60
2022/06/23 03:13:41;;;;;;;12.13;3.35;;;20.90;74.70;;;;;;5033193;28;20044;-62
2022/06/23 03:16:18;;;;;;;8.13;2.65;;;20.90;74.10;;;;;;5033056;28;20032;-61
2022/06/23 03:19:02;;;;;;;8.65;2.85;;;20.90;74.50;;;;;;5035631;28;20489;-61
2022/06/23 03:21:50;;;;;;;6.43;2.92;;;21.10;75.10;;;;;;5033603;28;20037;-60
2022/06/23 03:24:22;;;;;;;6.75;3.33;;;20.90;75.00;;;;;;5026947;28;20041;-60
2022/06/23 03:26:59;;;;;;;8.80;3.13;;;20.90;74.90;;;;;;5029817;28;20064;-61
2022/06/23 03:29:41;;;;;;;6.15;2.67;;;20.90;75.30;;;;;;5032195;28;20104;-60
2022/06/23 03:32:17;;;;;;;11.60;2.85;;;20.90;75.70;;;;;;5061956;28;20030;-60
2022/06/23 03:34:54;;;;;;;10.43;3.22;;;20.90;75.90;;;;;;5037842;28;20037;-60
2022/06/23 03:37:55;;;;;;;8.57;2.60;;;20.90;75.10;;;;;;5037803;28;20022;-61
2022/06/23 03:43:36;;;;;;;4.40;2.20;;;21.00;75.40;;;;;;5042756;28;20164;-60
2022/06/23 03:46:25;;;;;;;6.32;2.05;;;20.90;75.20;;;;;;5038886;28;20030;-60
2022/06/23 03:49:16;;;;;;;6.43;2.28;;;21.00;75.30;;;;;;5039035;28;20036;-62
2022/06/23 03:51:51;;;;;;;8.93;2.45;;;21.00;75.50;;;;;;5039277;28;20021;-62
2022/06/23 03:54:25;;;;;;;8.70;2.78;;;21.00;75.30;;;;;;5040861;28;20037;-61
2022/06/23 03:56:59;;;;;;;6.80;2.65;;;21.00;75.10;;;;;;5043247;28;20071;-60
2022/06/23 03:59:30;;;;;;;;;;;21.10;75.50;;;;;;5041234;28;20032;-60
2022/06/23 04:02:05;;;;;;;6.72;2.75;;;21.10;75.20;;;;;;5042687;28;19916;-61
2022/06/23 04:04:52;;;;;;;9.27;2.95;;;21.10;75.00;;;;;;5040089;28;20021;-61
2022/06/23 04:07:29;;;;;;;5.40;2.95;;;21.10;75.30;;;;;;5033776;28;20044;-60
2022/06/23 04:10:24;;;;;;;13.35;3.30;;;21.20;75.40;;;;;;5048933;28;20055;-60
2022/06/23 04:12:52;;;;;;;;;;;21.20;75.30;;;;;;5042446;28;20088;-61
2022/06/23 04:15:30;;;;;;;8.70;2.60;;;21.20;74.80;;;;;;5043559;28;20375;-62
2022/06/23 04:18:12;;;;;;;6.15;2.88;;;21.20;74.80;;;;;;5041879;28;20041;-60
2022/06/23 04:20:46;;;;;;;7.43;2.85;;;21.20;75.60;;;;;;5044190;28;20031;-61
2022/06/23 04:23:35;;;;;;;8.30;3.22;;;21.30;75.60;;;;;;5042512;28;20057;-61
2022/06/23 04:26:11;;;;;;;5.40;2.70;;;21.30;75.70;;;;;;5053960;28;20048;-61
2022/06/23 04:28:53;;;;;;;9.38;3.15;;;21.40;75.60;;;;;;4967502;28;20026;-61
2022/06/23 04:31:31;;;;;;;9.43;3.05;;;21.40;75.40;;;;;;5041128;28;20033;-62
2022/06/23 04:34:00;;;;;;;7.40;3.20;;;21.50;75.30;;;;;;5043018;28;20021;-60
2022/06/23 04:36:30;;;;;;;6.30;3.30;;;21.50;75.10;;;;;;5053764;28;20030;-60
2022/06/23 04:39:06;;;;;;;8.88;3.20;;;21.60;75.00;;;;;;5044229;28;20034;-60
2022/06/23 04:41:39;;;;;;;11.38;3.70;;;21.60;74.90;;;;;;5043200;28;20033;-60
2022/06/23 04:44:24;;;;;;;8.85;3.28;;;21.70;74.80;;;;;;5042287;28;20441;-60
2022/06/23 04:47:05;;;;;;;7.82;3.33;;;21.70;74.70;;;;;;5039879;28;20037;-61
2022/06/23 04:49:48;;;;;;;9.02;3.40;;;21.80;74.50;;;;;;5041732;28;20036;-60
2022/06/23 04:52:20;;;;;;;9.60;3.55;;;21.80;75.00;;;;;;5035949;28;20097;-61
2022/06/23 04:54:57;;;;;;;11.07;3.47;;;21.90;74.70;;;;;;5046330;28;20021;-61
2022/06/23 04:57:47;;;;;;;9.55;4.22;;;21.90;74.40;;;;;;5032248;28;20030;-61
2022/06/23 05:00:26;;;;;;;8.98;4.07;;;22.00;74.40;;;;;;5042326;28;20021;-60
2022/06/23 05:02:59;;;;;;;12.10;5.05;;;22.00;74.60;;;;;;5031952;28;20029;-62
2022/06/23 05:05:31;;;;;;;15.05;4.97;;;22.10;74.40;;;;;;5037838;28;20029;-61
2022/06/23 05:08:05;;;;;;;15.80;5.20;;;22.10;74.40;;;;;;5042025;28;20064;-61
2022/06/23 05:11:06;;;;;;;10.68;5.03;;;22.10;74.30;;;;;;5043169;28;20799;-60
2022/06/23 05:13:56;;;;;;;18.92;5.32;;;22.20;74.80;;;;;;5037307;28;20052;-60
2022/06/23 05:16:36;;;;;;;15.98;5.35;;;22.20;74.80;;;;;;5047548;28;20044;-62
2022/06/23 05:19:17;;;;;;;17.52;8.48;;;22.20;74.40;;;;;;5042307;28;20022;-62
2022/06/23 05:21:48;;;;;;;24.17;10.85;;;22.30;74.00;;;;;;5040659;28;20029;-61
2022/06/23 05:24:26;;;;;;;32.05;12.20;;;22.30;73.80;;;;;;5039454;28;20026;-59
2022/06/23 05:27:01;;;;;;;22.20;11.63;;;22.30;73.60;;;;;;5039907;28;20050;-60
2022/06/23 05:29:42;;;;;;;25.75;14.40;;;22.30;73.40;;;;;;5036481;28;20084;-60
2022/06/23 05:32:16;;;;;;;28.60;14.10;;;22.30;73.00;;;;;;5042571;28;20413;-61
2022/06/23 05:34:55;;;;;;;37.28;14.45;;;22.30;72.60;;;;;;5045901;28;20034;-61
2022/06/23 05:37:27;;;;;;;27.13;13.88;;;22.40;72.40;;;;;;5049019;28;20025;-62
2022/06/23 05:40:19;;;;;;;24.08;13.00;;;22.40;72.20;;;;;;5040116;28;20361;-61
2022/06/23 05:42:48;;;;;;;23.70;12.52;;;22.30;72.10;;;;;;5043829;28;20037;-61
2022/06/23 05:45:25;;;;;;;22.30;12.68;;;22.30;72.20;;;;;;5046802;28;20037;-60
2022/06/23 05:47:52;;;;;;;19.35;12.05;;;22.30;71.90;;;;;;5046500;28;20094;-60
2022/06/23 05:50:28;;;;;;;22.67;12.95;;;22.30;71.80;;;;;;5046596;28;20188;-61
2022/06/23 05:53:02;;;;;;;26.20;12.65;;;22.30;71.40;;;;;;5044444;28;20445;-61
2022/06/23 05:56:03;;;;;;;24.35;12.02;;;22.30;71.80;;;;;;5044959;28;20092;-61
2022/06/23 05:58:41;;;;;;;21.90;11.63;;;22.40;71.80;;;;;;5046667;28;20407;-62
2022/06/23 06:01:34;;;;;;;26.55;11.77;;;22.40;72.10;;;;;;5044616;28;20097;-60
2022/06/23 06:04:10;;;;;;;20.05;10.73;;;22.50;71.80;;;;;;5035743;28;20117;-63
2022/06/23 06:06:37;;;;;;;27.35;10.68;;;22.50;71.60;;;;;;5044098;28;20037;-60
2022/06/23 06:11:55;;;;;;;20.58;10.75;;;22.60;71.30;;;;;;5039283;28;20083;-61
2022/06/23 06:14:26;;;;;;;21.13;10.38;;;22.60;71.70;;;;;;5043798;28;20018;-59
2022/06/23 06:16:53;;;;;;;14.82;7.53;;;22.70;71.00;;;;;;5042720;28;20037;-60
2022/06/23 06:19:23;;;;;;;19.55;8.65;;;22.70;71.00;;;;;;5047004;28;20025;-60
2022/06/23 06:21:52;;;;;;;19.67;7.90;;;22.70;70.80;;;;;;5064656;28;20060;-60
2022/06/23 06:24:27;;;;;;;25.23;9.05;;;22.70;70.40;;;;;;5043303;28;20033;-62
2022/06/23 06:26:54;;;;;;;18.92;8.15;;;22.80;69.90;;;;;;5046003;28;20056;-61
2022/06/23 06:29:28;;;;;;;16.65;7.38;;;22.80;70.40;;;;;;5045759;28;20087;-61
2022/06/23 06:32:12;;;;;;;17.77;8.40;;;22.80;70.50;;;;;;5045435;28;20025;-60
2022/06/23 06:35:16;;;;;;;30.90;7.35;;;22.90;69.70;;;;;;5046417;28;20029;-61
2022/06/23 06:37:47;;;;;;;14.98;7.15;;;22.90;69.10;;;;;;5005544;28;20041;-60
2022/06/23 06:40:14;;;;;;;18.30;8.90;;;23.00;69.60;;;;;;5004755;28;20022;-60
2022/06/23 06:42:48;;;;;;;19.40;10.00;;;23.00;69.60;;;;;;5009518;28;20038;-61
2022/06/23 06:45:17;;;;;;;17.58;10.68;;;23.10;69.50;;;;;;4997360;28;20030;-61
2022/06/23 06:47:44;;;;;;;21.33;10.80;;;23.10;69.40;;;;;;4996303;28;20109;-60
2022/06/23 06:50:29;;;;;;;14.40;8.40;;;23.20;69.20;;;;;;4993926;28;20038;-61
2022/06/23 06:52:57;;;;;;;20.15;10.05;;;23.30;68.40;;;;;;5010474;28;20042;-61
2022/06/23 06:55:36;;;;;;;16.48;10.30;;;23.30;69.00;;;;;;5006698;28;20524;-61
2022/06/23 06:58:22;;;;;;;17.27;10.48;;;23.40;68.20;;;;;;4993300;28;20183;-62
2022/06/23 07:00:59;;;;;;;22.42;11.88;;;23.50;68.70;;;;;;4989684;28;20389;-61
2022/06/23 07:03:26;;;;;;;20.05;11.25;;;23.60;68.00;;;;;;5003314;28;20066;-63
2022/06/23 07:06:18;;;;;;;18.88;11.23;;;23.70;68.00;;;;;;4994178;28;20031;-60
2022/06/23 07:08:58;;;;;;;18.10;10.98;;;23.70;67.60;;;;;;4985437;28;20042;-63
2022/06/23 07:11:44;;;;;;;23.20;12.35;;;23.80;67.40;;;;;;4997840;28;20038;-62
2022/06/23 07:14:40;;;;;;;21.05;12.60;;;23.80;67.00;;;;;;5011791;28;20076;-61
2022/06/23 07:17:34;;;;;;;21.77;12.57;;;23.90;67.00;;;;;;5032049;28;20038;-61
2022/06/23 07:20:21;;;;;;;23.73;12.07;;;23.90;66.50;;;;;;5035549;28;20041;-61
2022/06/23 07:23:10;;;;;;;21.42;12.48;;;24.00;66.50;;;;;;5036515;28;20029;-60
2022/06/23 07:25:41;;;;;;;22.75;11.60;;;24.00;66.70;;;;;;5037946;28;20141;-61
2022/06/23 07:28:18;;;;;;;22.02;12.57;;;24.00;67.00;;;;;;4979368;28;20120;-64
2022/06/23 07:30:49;;;;;;;17.27;11.23;;;24.10;66.70;;;;;;5046290;28;20033;-61
2022/06/23 07:33:34;;;;;;;17.40;10.10;;;24.20;66.60;;;;;;5040420;28;20029;-61
2022/06/23 07:36:23;;;;;;;23.33;10.20;;;24.30;66.50;;;;;;5037136;28;20068;-61
2022/06/23 07:39:22;;;;;;;18.42;9.32;;;24.40;65.80;;;;;;5030433;28;20037;-62
2022/06/23 07:42:03;;;;;;;19.02;8.38;;;24.50;65.50;;;;;;5034215;28;20058;-60
2022/06/23 07:44:37;;;;;;;18.90;9.27;;;24.70;65.70;;;;;;5042512;28;20053;-61
2022/06/23 07:47:03;;;;;;;15.90;9.13;;;24.70;64.90;;;;;;5036239;28;20038;-62
2022/06/23 07:49:32;;;;;;;20.70;9.60;;;24.80;65.00;;;;;;5026632;28;20030;-62
2022/06/23 07:52:00;;;;;;;18.63;9.65;;;24.80;64.40;;;;;;5029765;28;20026;-60
2022/06/23 07:54:27;;;;;;;16.38;8.07;;;24.90;63.80;;;;;;5031608;28;20025;-61
2022/06/23 07:56:54;;;;;;;16.88;9.18;;;24.90;64.00;;;;;;5040904;28;20115;-62
2022/06/23 07:59:26;;;;;;;18.83;9.05;;;25.00;64.00;;;;;;5032115;28;20037;-61
2022/06/23 08:02:17;;;;;;;16.00;8.63;;;25.00;63.40;;;;;;5029568;28;20031;-61
2022/06/23 08:04:46;;;;;;;12.23;7.15;;;25.00;62.00;;;;;;5031996;28;20499;-61
2022/06/23 08:07:12;;;;;;;14.85;7.63;;;25.00;63.00;;;;;;5041164;28;20174;-61
2022/06/23 08:09:50;;;;;;;15.82;7.72;;;25.10;62.70;;;;;;5030263;28;20094;-60
2022/06/23 08:18:01;;;;;;;14.27;7.63;;;25.30;63.00;;;;;;5036031;28;20083;-61
2022/06/23 08:20:31;;;;;;;17.77;7.32;;;25.40;62.00;;;;;;5042693;28;20041;-61
2022/06/23 08:23:00;;;;;;;16.33;6.95;;;25.50;61.80;;;;;;5040471;28;20048;-61
2022/06/23 08:25:26;;;;;;;16.02;8.15;;;25.60;61.80;;;;;;5043870;28;20029;-61
2022/06/23 08:27:53;;;;;;;16.35;8.00;;;25.60;61.50;;;;;;5042978;28;20041;-63
2022/06/23 08:30:20;;;;;;;14.60;8.05;;;25.60;61.20;;;;;;5040688;28;20021;-61
2022/06/23 08:32:49;;;;;;;14.25;7.70;;;25.70;61.90;;;;;;5040796;28;20036;-61
2022/06/23 08:35:33;;;;;;;14.82;7.95;;;25.80;61.80;;;;;;5040472;28;20030;-62
2022/06/23 08:38:05;;;;;;;18.58;8.65;;;25.90;60.90;;;;;;5038867;28;21077;-60
2022/06/23 08:41:01;;;;;;;17.13;7.85;;;26.10;61.50;;;;;;5035914;28;20026;-61
2022/06/23 08:43:59;;;;;;;13.02;7.15;;;26.10;60.50;;;;;;5035906;28;20029;-61
2022/06/23 08:46:40;;;;;;;16.10;7.43;;;26.30;60.10;;;;;;5032907;28;20059;-62
2022/06/23 08:49:17;;;;;;;15.52;7.80;;;26.40;59.90;;;;;;5030134;28;20045;-61
2022/06/23 08:52:05;;;;;;;23.80;8.90;;;26.50;59.40;;;;;;5039261;28;20021;-61
2022/06/23 08:54:54;;;;;;;14.68;7.32;;;26.60;58.60;;;;;;5029170;28;20056;-61
2022/06/23 08:57:25;;;;;;;18.55;7.75;;;26.70;58.40;;;;;;5033443;28;20089;-62
2022/06/23 09:00:16;;;;;;;13.90;7.32;;;26.80;59.90;;;;;;5035304;28;20052;-61
2022/06/23 09:02:59;;;;;;;14.68;7.47;;;26.90;59.30;;;;;;5029363;28;20461;-60
2022/06/23 09:05:49;;;;;;;12.07;7.45;;;27.10;58.60;;;;;;5032022;28;20025;-60
2022/06/23 09:08:42;;;;;;;16.42;7.85;;;27.30;59.30;;;;;;5031998;28;20053;-59
2022/06/23 09:11:32;;;;;;;16.75;7.25;;;27.40;56.10;;;;;;5037958;28;20044;-59
2022/06/23 09:14:12;;;;;;;15.77;8.25;;;27.50;57.70;;;;;;5034671;28;20087;-59
2022/06/23 09:17:16;;;;;;;15.38;7.78;;;27.70;58.00;;;;;;5040832;28;20105;-60
2022/06/23 09:20:08;;;;;;;13.63;7.97;;;27.80;57.30;;;;;;5039845;28;20033;-60
2022/06/23 09:23:03;;;;;;;16.23;7.75;;;27.90;57.40;;;;;;5034542;28;20411;-60
2022/06/23 09:26:03;;;;;;;13.73;8.48;;;28.00;56.80;;;;;;5044176;28;20032;-61
2022/06/23 09:28:46;;;;;;;20.45;8.25;;;28.10;56.20;;;;;;5030565;28;21952;-60
2022/06/23 09:31:35;;;;;;;13.00;8.20;;;28.20;56.90;;;;;;5039094;28;20045;-61
2022/06/23 09:34:25;;;;;;;16.02;8.27;;;28.40;56.90;;;;;;5028293;28;20045;-60
2022/06/23 09:37:02;;;;;;;13.25;8.13;;;28.50;56.10;;;;;;5031663;28;20149;-61
2022/06/23 09:39:51;;;;;;;14.98;7.75;;;28.60;55.10;;;;;;5030708;28;20052;-61
2022/06/23 09:42:27;;;;;;;13.27;7.55;;;28.70;54.60;;;;;;5001995;28;20431;-61
2022/06/23 09:45:30;;;;;;;25.65;8.38;;;28.80;55.80;;;;;;5042815;28;20045;-60
2022/06/23 09:48:30;;;;;;;11.98;5.75;;;28.90;54.40;;;;;;5030721;28;20049;-62
2022/06/23 09:50:58;;;;;;;10.38;5.32;;;29.00;54.70;;;;;;5028816;28;20211;-60
2022/06/23 09:53:35;;;;;;;9.32;5.13;;;29.10;54.80;;;;;;5031350;28;20037;-62
2022/06/23 09:56:19;;;;;;;10.27;4.85;;;29.20;54.10;;;;;;5028182;28;20041;-60
2022/06/23 09:58:44;;;;;;;;;;;29.30;54.00;;;;;;5029249;28;20429;-61
2022/06/23 10:01:31;;;;;;;9.98;3.78;;;29.40;55.30;;;;;;5026423;28;20080;-60
2022/06/23 10:04:19;;;;;;;4.78;2.90;;;29.50;53.20;;;;;;5030769;28;20079;-60
2022/06/23 10:07:01;;;;;;;8.13;3.08;;;29.60;52.80;;;;;;5026507;28;20072;-62
2022/06/23 10:09:36;;;;;;;7.07;2.58;;;29.70;53.00;;;;;;5012061;28;20037;-60
2022/06/23 10:12:33;;;;;;;7.47;3.08;;;29.80;53.30;;;;;;5031510;28;20060;-60
2022/06/23 10:15:32;;;;;;;9.57;2.40;;;29.90;51.60;;;;;;5034073;28;20099;-61
2022/06/23 10:18:31;;;;;;;7.40;2.00;;;30.00;51.60;;;;;;5035560;28;20029;-62
2022/06/23 10:21:36;;;;;;;8.18;2.20;;;30.10;52.00;;;;;;5032433;28;20026;-60
2022/06/23 10:24:04;;;;;;;;;;;30.20;51.40;;;;;;5034554;28;20037;-61
2022/06/23 10:26:36;;;;;;;4.82;1.42;;;30.30;53.10;;;;;;5034461;28;19951;-60
2022/06/23 10:29:16;;;;;;;6.13;1.42;;;30.40;51.30;;;;;;5030020;28;20064;-61
2022/06/23 10:31:54;;;;;;;5.55;1.58;;;30.40;49.80;;;;;;5030860;28;20051;-59
2022/06/23 10:34:58;;;;;;;5.88;1.52;;;30.40;49.90;;;;;;5032641;28;20045;-60
2022/06/23 10:38:40;;;;;;;4.82;1.23;;;30.50;48.70;;;;;;5043326;28;20032;-59
2022/06/23 10:41:17;;;;;;;7.43;1.13;;;30.50;49.40;;;;;;4932209;29;20100;-60
2022/06/23 10:43:43;;;;;;;7.30;1.80;;;30.60;49.20;;;;;;4922885;29;20159;-61
2022/06/23 10:46:44;;;;;;;7.72;1.48;;;30.70;49.40;;;;;;4932460;29;20048;-61
2022/06/23 10:49:36;;;;;;;7.50;1.40;;;30.80;48.70;;;;;;4928735;29;20047;-60
2022/06/23 10:52:35;;;;;;;2.47;0.82;;;31.00;47.70;;;;;;4919062;29;20044;-63
2022/06/23 10:55:16;;;;;;;5.82;1.55;;;30.90;48.40;;;;;;4919660;29;20032;-63
2022/06/23 10:58:00;;;;;;;10.40;1.50;;;31.00;48.30;;;;;;4935821;29;20044;-61
2022/06/23 11:00:54;;;;;;;4.47;1.33;;;31.10;48.30;;;;;;4931618;29;20043;-63
2022/06/23 11:03:38;;;;;;;;;;;31.20;46.50;;;;;;4932379;29;20113;-61
2022/06/23 11:06:41;;;;;;;7.07;1.03;;;31.30;49.00;;;;;;4932734;29;20001;-62
2022/06/23 11:09:17;;;;;;;4.88;1.10;;;31.30;47.90;;;;;;4941773;29;20062;-62
2022/06/23 11:12:04;;;;;;;5.25;1.60;;;31.30;47.70;;;;;;4994135;28;20041;-62
2022/06/23 11:14:55;;;;;;;5.93;1.40;;;31.40;47.40;;;;;;5045224;28;20040;-62
2022/06/23 11:17:58;;;;;;;7.30;1.55;;;31.50;46.30;;;;;;5049352;28;20080;-62
2022/06/23 11:20:45;;;;;;;3.85;1.00;;;31.60;46.10;;;;;;5046215;28;20056;-62
2022/06/23 11:23:19;;;;;;;5.00;1.70;;;31.70;45.70;;;;;;5039286;28;20071;-61
2022/06/23 11:25:51;;;;;;;8.80;1.30;;;31.70;45.80;;;;;;5053168;28;20133;-62
2022/06/23 11:28:29;;;;;;;4.70;1.08;;;31.80;45.60;;;;;;5038745;28;20368;-62
2022/06/23 11:31:21;;;;;;;6.18;1.50;;;31.90;45.70;;;;;;5043039;28;20025;-61
2022/06/23 11:33:59;;;;;;;9.48;1.77;;;32.00;43.40;;;;;;5038540;28;20093;-62
2022/06/23 11:36:27;;;;;;;9.38;1.48;;;32.10;44.20;;;;;;5044758;28;20306;-62
2022/06/23 11:39:02;;;;;;;6.55;1.33;;;32.20;44.80;;;;;;5048767;28;20026;-62
2022/06/23 11:42:06;;;;;;;7.47;1.65;;;32.30;44.30;;;;;;5043777;28;20033;-62
2022/06/23 11:45:20;;;;;;;2.40;0.98;;;32.30;44.20;;;;;;5045350;28;20104;-61
2022/06/23 11:48:02;;;;;;;4.57;1.30;;;32.40;44.00;;;;;;5015597;28;20064;-62
2022/06/23 11:50:55;;;;;;;4.18;1.05;;;32.50;42.60;;;;;;5020057;28;20037;-62
2022/06/23 11:53:43;;;;;;;7.60;1.40;;;32.50;42.70;;;;;;5014902;28;20041;-61
2022/06/23 11:56:29;;;;;;;6.38;1.23;;;32.60;42.70;;;;;;5014924;28;20050;-62
2022/06/23 11:59:18;;;;;;;7.03;1.25;;;32.70;43.40;;;;;;5010422;28;20144;-61
2022/06/23 12:01:44;;;;;;;4.53;1.20;;;32.80;42.40;;;;;;5022060;28;20076;-62
2022/06/23 12:04:32;;;;;;;7.65;1.27;;;32.90;43.40;;;;;;5022116;28;20022;-61
2022/06/23 12:07:19;;;;;;;8.05;1.38;;;33.00;41.50;;;;;;5022924;28;20125;-63
2022/06/23 12:10:04;;;;;;;3.90;1.00;;;33.10;41.70;;;;;;5024399;28;20042;-62
2022/06/23 12:12:33;;;;;;;8.40;1.40;;;33.20;41.10;;;;;;5020154;28;20065;-62
2022/06/23 12:15:02;;;;;;;5.03;1.10;;;33.30;40.70;;;;;;5021637;28;20057;-63
2022/06/23 12:17:40;;;;;;;7.70;1.20;;;33.40;41.90;;;;;;5025545;28;20054;-62
2022/06/23 12:20:16;;;;;;;8.20;1.13;;;33.50;40.20;;;;;;5036596;28;20538;-62
2022/06/23 12:23:00;;;;;;;6.28;1.40;;;33.60;39.50;;;;;;5045948;28;20427;-61
2022/06/23 12:25:37;;;;;;;12.68;1.60;;;33.70;40.10;;;;;;5045842;28;20029;-62
2022/06/23 12:28:25;;;;;;;12.95;1.85;;;33.80;40.60;;;;;;5053594;28;20485;-62
2022/06/23 12:31:15;;;;;;;5.63;1.20;;;33.80;39.50;;;;;;5040882;28;20033;-62
2022/06/23 12:34:09;;;;;;;6.55;1.52;;;33.90;40.30;;;;;;5028487;28;20049;-62
2022/06/23 12:36:55;;;;;;;6.00;1.30;;;33.80;39.60;;;;;;5036365;28;20027;-63
2022/06/23 12:39:51;;;;;;;4.55;1.23;;;33.80;39.00;;;;;;5030486;28;20100;-62
2022/06/23 12:42:19;;;;;;;3.97;1.30;;;33.80;38.90;;;;;;5039452;28;20077;-62
2022/06/23 12:45:23;;;;;;;3.25;1.20;;;33.90;40.90;;;;;;5050852;28;20496;-62
2022/06/23 12:48:10;;;;;;;5.90;1.20;;;34.00;40.10;;;;;;5041821;28;20045;-62
2022/06/23 12:50:35;;;;;;;3.83;1.20;;;34.00;40.10;;;;;;5044921;28;20018;-61
2022/06/23 12:53:15;;;;;;;3.13;1.08;;;34.10;40.70;;;;;;5049715;28;20360;-62
2022/06/23 12:56:01;;;;;;;5.30;1.30;;;34.10;38.40;;;;;;5042322;28;20099;-60
2022/06/23 12:58:44;;;;;;;6.10;1.40;;;34.20;39.40;;;;;;5041150;28;20050;-63
2022/06/23 13:01:13;;;;;;;5.57;1.40;;;34.20;38.60;;;;;;5047480;28;20516;-63
2022/06/23 13:03:58;;;;;;;8.05;1.10;;;34.20;39.20;;;;;;5062010;28;20041;-62
2022/06/23 13:06:32;;;;;;;10.98;1.20;;;34.20;37.50;;;;;;5048410;28;20073;-62
2022/06/23 13:09:27;;;;;;;9.68;1.35;;;34.20;38.00;;;;;;5045837;28;20056;-61
2022/06/23 13:12:07;;;;;;;3.65;1.27;;;34.00;37.30;;;;;;5040076;28;20085;-61
2022/06/23 13:14:49;;;;;;;6.28;1.10;;;33.90;37.20;;;;;;5050225;28;20033;-63
2022/06/23 13:17:32;;;;;;;4.00;1.00;;;33.70;38.00;;;;;;5035315;28;20081;-62
2022/06/23 13:20:24;;;;;;;14.13;1.33;;;33.60;40.00;;;;;;5053266;28;20116;-62
2022/06/23 13:22:55;;;;;;;7.00;1.75;;;33.60;39.40;;;;;;5053899;28;20052;-63
2022/06/23 13:25:27;;;;;;;3.92;1.15;;;33.70;39.90;;;;;;4972095;28;20783;-63
2022/06/23 13:27:54;;;;;;;2.95;1.02;;;33.80;38.40;;;;;;5048775;28;20037;-63
2022/06/23 13:30:23;;;;;;;9.52;1.60;;;33.90;38.60;;;;;;5056461;28;20025;-61
2022/06/23 13:33:07;;;;;;;5.93;1.45;;;34.00;38.70;;;;;;5064583;28;20037;-62
2022/06/23 13:35:45;;;;;;;5.28;0.95;;;34.00;36.40;;;;;;5041634;28;20033;-62
2022/06/23 13:38:24;;;;;;;8.25;1.38;;;34.20;37.30;;;;;;5045240;28;20080;-61
2022/06/23 13:40:49;;;;;;;4.95;1.00;;;34.30;35.60;;;;;;5046031;28;20033;-61
2022/06/23 13:43:23;;;;;;;8.93;1.42;;;34.30;37.60;;;;;;5050181;28;20052;-61
2022/06/23 13:46:11;;;;;;;6.30;1.35;;;34.40;37.20;;;;;;5043673;28;20116;-62
2022/06/23 13:48:54;;;;;;;6.00;1.65;;;34.50;36.80;;;;;;5046594;28;20121;-62
2022/06/23 13:51:48;;;;;;;3.63;1.23;;;34.50;35.90;;;;;;5028977;28;20073;-61
2022/06/23 13:54:37;;;;;;;7.60;1.30;;;34.60;34.80;;;;;;5048409;28;20041;-61
2022/06/23 13:57:29;;;;;;;7.00;1.35;;;34.70;35.70;;;;;;5050698;28;20095;-61
2022/06/23 14:00:20;;;;;;;3.63;1.33;;;34.80;36.70;;;;;;5040015;28;20037;-61
2022/06/23 14:03:01;;;;;;;5.00;1.15;;;35.00;36.50;;;;;;5042030;28;20089;-62
2022/06/23 14:05:38;;;;;;;3.78;1.15;;;35.10;36.60;;;;;;5056578;28;20035;-61
2022/06/23 14:08:04;;;;;;;8.32;1.48;;;35.30;36.30;;;;;;5042877;28;20064;-63